MMUN/CUN METAR and TAF weather

Enter ICAO airport designator
Station Type Date Time Source
MMUN METAR 2019/12/06 01:45 UTC NOAA

MMUN 060145Z 35003KT 7SM SCT015 BKN280 21/19 A3011 RMK 8/108


Station Type Date Time Source
MMUN Decoded METAR 2019/12/06 01:45 UTC NOAA

Cancun International Airport, Mexico (MMUN) 21-02N 086-52W
Dec 05, 2019 - 08:45 PM EST / 2019.12.06 0145 UTC
Wind: from the N (350 degrees) at 3 MPH (3 KT):0
Visibility: 7 mile(s):0
Sky conditions: mostly cloudy
Temperature: 69 F (21 C)
Dew Point: 66 F (19 C)
Relative Humidity: 88%
Pressure (altimeter): 30.11 in. Hg (1019 hPa)
ob: MMUN 060145Z 35003KT 7SM SCT015 BKN280 21/19 A3011 RMK 8/108
cycle: 2

Station Type Date Time Source
MMUN TAF 2019/12/05 18:43 UTC NOAA

TAF MMUN 051641Z 0518/0624 03015KT P6SM SCT010 TX28/0519Z TN17/0612Z
BECMG 0601/0602 00000KT
FM061500 09010KT P6SM SCT015

Example: see airport list